Sovereign — 9HUE9 — position and weather

sailwx.info

Track history (hours):
 
Tides and Currents Weather Stations Pressure Air Temp Water Temp Dewpoint Dewpoint Depression Visibility Wind Speed Wind Dir Waves Ship Positions

Sovereign

Last reported at 2019-Aug-20 10:31 UTC. Time now 2019-Aug-20 10:36 UTC.
Position N 41°17' E 008°23'.

Length 269 m; draft 7.8 m.

Type: Passenger vessel. MMSI: 249539000.

Date/timePositionNaut miles runAvg speedWind from/ knotsBaromVisibWave heightAir tempDewpointWater temp
2019-Aug-20 10:31N 41°17' E 008°23'915.5
2019-Aug-20 09:54N 41°17' E 008°11'1015.4
2019-Aug-20 09:15N 41°16' E 007°57'815.3
2019-Aug-20 08:45N 41°16' E 007°47'515.0
2019-Aug-20 08:26N 41°16' E 007°41'715.1
2019-Aug-20 07:59N 41°16' E 007°31'715.3
2019-Aug-20 07:31N 41°16' E 007°22'815.3
2019-Aug-20 07:00N 41°16' E 007°12'815.1
2019-Aug-20 06:30N 41°16' E 007°02'715.0
2019-Aug-20 06:00N 41°16' E 006°52'815.1
2019-Aug-20 05:30N 41°16' E 006°42'915.5
2019-Aug-20 04:54N 41°16' E 006°29'615.4
2019-Aug-20 04:31N 41°16' E 006°21'815.3
2019-Aug-20 03:58N 41°16' E 006°10'715.2
2019-Aug-20 03:31N 41°16' E 006°01'2214.7
2019-Aug-20 01:59N 41°16' E 005°31'816.9
2019-Aug-20 01:30N 41°16' E 005°20'1016.8
2019-Aug-20 00:54N 41°16' E 005°07'717.0
2019-Aug-20 00:30N 41°16' E 004°58'916.8
2019-Aug-20 00:00N 41°15' E 004°47'1816.4
2019-Aug-19 22:55N 41°16' E 004°23'1416.5
2019-Aug-19 22:05N 41°16' E 004°05'216.7
2019-Aug-19 21:58N 41°16' E 004°02'1916.6
2019-Aug-19 20:51N 41°16' E 003°37'1416.2
2019-Aug-19 20:00N 41°16' E 003°19'4816.0
2019-Aug-19 17:02N 41°16' E 002°16'116.5
2019-Aug-19 16:59N 41°16' E 002°15'510.3
2019-Aug-19 16:31N 41°19' E 002°10'2 4.3
2019-Aug-19 16:00N 41°22' E 002°11'0 0.0
2019-Aug-19 15:30N 41°22' E 002°11'0 0.0
2019-Aug-19 15:00N 41°22' E 002°11'0 0.0
2019-Aug-19 14:30N 41°22' E 002°11'0 0.0
2019-Aug-19 14:00N 41°22' E 002°11'0 0.0
2019-Aug-19 13:30N 41°22' E 002°11'0 0.0
2019-Aug-19 13:00N 41°22' E 002°11'0 0.0
2019-Aug-19 12:30N 41°22' E 002°11'0 0.0
2019-Aug-19 12:00N 41°22' E 002°11'0 0.0
2019-Aug-19 11:30N 41°22' E 002°11'0 0.0
2019-Aug-19 11:00N 41°22' E 002°11'0 0.0
2019-Aug-19 10:30N 41°22' E 002°11'0 0.0
2019-Aug-19 10:00N 41°22' E 002°11'0 0.0
2019-Aug-19 09:30N 41°22' E 002°11'0 0.0
2019-Aug-19 09:00N 41°22' E 002°11'0 0.0
2019-Aug-19 08:30N 41°22' E 002°11'0 0.0
2019-Aug-19 08:00N 41°22' E 002°11'0 0.0
2019-Aug-19 07:30N 41°22' E 002°11'0 0.0
2019-Aug-19 07:00N 41°22' E 002°11'0 0.0
2019-Aug-19 06:30N 41°22' E 002°11'0 0.0
2019-Aug-19 06:00N 41°22' E 002°11'1 2.0
2019-Aug-19 05:30N 41°21' E 002°10'2 4.9
2019-Aug-19 05:00N 41°18' E 002°11'5 9.1
2019-Aug-19 04:30N 41°16' E 002°16'612.7
2019-Aug-19 04:00N 41°16' E 002°25'612.3
2019-Aug-19 03:30N 41°16' E 002°33'712.4
2019-Aug-19 02:54N 41°19' E 002°42'512.2
2019-Aug-19 02:30N 41°22' E 002°47'1012.3
2019-Aug-19 01:44N 41°27' E 002°58'912.3
2019-Aug-19 01:01N 41°32' E 003°08'011.9
2019-Aug-19 01:00N 41°32' E 003°08'6432.1
2019-Aug-19 01:00N 41°30' E 003°00'1323.4 050 / 121016.0 5.4 24.0 26.5
2019-Aug-19 00:25N 41°37' E 003°16'512.4
2019-Aug-18 23:59N 41°40' E 003°21'1012.1
2019-Aug-18 23:08N 41°46' E 003°32'313.0
2019-Aug-18 22:52N 41°50' E 003°33'712.8
2019-Aug-18 22:19N 41°57' E 003°34'515.0
2019-Aug-18 21:57N 42°02' E 003°36'7115.1
2019-Aug-18 17:14N 43°13' E 003°49'314.7
2019-Aug-18 17:00N 43°16' E 003°48'714.2
2019-Aug-18 16:30N 43°23' E 003°46'3 5.3
2019-Aug-18 16:00N 43°24' E 003°43'0 0.1
2019-Aug-18 15:26N 43°24' E 003°43'0 0.0
2019-Aug-18 14:56N 43°24' E 003°43'0 0.0
2019-Aug-18 14:26N 43°24' E 003°43'0 0.0
2019-Aug-18 13:26N 43°24' E 003°43'0 0.0
2019-Aug-18 12:26N 43°24' E 003°43'0 0.0
2019-Aug-18 11:26N 43°24' E 003°43'0 0.0
2019-Aug-18 10:56N 43°24' E 003°43'0 0.0
2019-Aug-18 09:44N 43°24' E 003°43'0 0.0
2019-Aug-18 08:29N 43°24' E 003°43'0 0.0
2019-Aug-18 07:53N 43°24' E 003°43'0 0.0
2019-Aug-18 06:56N 43°24' E 003°43'0 0.0
2019-Aug-18 06:08N 43°24' E 003°43'0 0.0
2019-Aug-18 05:49N 43°24' E 003°43'0 1.2
2019-Aug-18 05:31N 43°24' E 003°43'3 6.3
2019-Aug-18 05:00N 43°22' E 003°47'5 9.7
2019-Aug-18 04:29N 43°18' E 003°51'611.5
2019-Aug-18 04:00N 43°15' E 003°57'612.2
2019-Aug-18 03:29N 43°12' E 004°05'5812.6
2019-Aug-17 22:55N 42°56' E 005°21'1012.9
2019-Aug-17 22:10N 42°55' E 005°34'215.7
2019-Aug-17 22:00N 42°54' E 005°37'1515.7
2019-Aug-17 21:04N 42°54' E 005°58'115.6
2019-Aug-17 21:00N 42°54' E 005°59'815.8
2019-Aug-17 20:29N 42°53' E 006°10'815.9
2019-Aug-17 20:00N 42°53' E 006°20'815.7
2019-Aug-17 19:30N 42°53' E 006°31'815.6
2019-Aug-17 19:00N 42°53' E 006°42'1415.0
2019-Aug-17 18:06N 43°02' E 006°55'915.5
2019-Aug-17 17:30N 43°10' E 007°03'815.7
2019-Aug-17 17:00N 43°16' E 007°09'815.4
2019-Aug-17 16:30N 43°23' E 007°12'815.5
2019-Aug-17 16:00N 43°31' E 007°14'714.8
2019-Aug-17 15:30N 43°38' E 007°18'4 7.3
2019-Aug-17 15:00N 43°41' E 007°19'0 0.0
2019-Aug-17 14:30N 43°41' E 007°19'0 0.0
2019-Aug-17 13:51N 43°41' E 007°19'0 0.0
2019-Aug-17 13:27N 43°41' E 007°19'0 0.0
2019-Aug-17 13:00N 43°41' E 007°19'0 0.0
2019-Aug-17 12:30N 43°41' E 007°19'0 0.0
2019-Aug-17 11:57N 43°41' E 007°19'0 0.0
2019-Aug-17 11:30N 43°41' E 007°19'0 0.0
2019-Aug-17 10:57N 43°41' E 007°19'0 0.0
2019-Aug-17 10:24N 43°41' E 007°19'0 0.0
2019-Aug-17 10:00N 43°41' E 007°19'0 0.0
2019-Aug-17 09:24N 43°41' E 007°19'0 0.0
2019-Aug-17 08:57N 43°41' E 007°19'0 0.0
2019-Aug-17 08:30N 43°41' E 007°19'0 0.0
2019-Aug-17 08:00N 43°41' E 007°19'0 0.0
2019-Aug-17 07:30N 43°41' E 007°19'0 0.0
2019-Aug-17 07:00N 43°41' E 007°19'0 0.0
2019-Aug-17 06:27N 43°41' E 007°19'0 0.0
2019-Aug-17 05:57N 43°41' E 007°19'0 0.1
2019-Aug-17 05:30N 43°41' E 007°19'0 0.1
2019-Aug-17 05:00N 43°41' E 007°19'2 4.3
2019-Aug-17 04:30N 43°40' E 007°21'612.0
2019-Aug-17 04:00N 43°39' E 007°29'612.2
2019-Aug-17 03:30N 43°39' E 007°37'612.8
2019-Aug-17 03:00N 43°40' E 007°46'612.7
2019-Aug-17 02:31N 43°40' E 007°55'612.9
2019-Aug-17 02:00N 43°39' E 008°03'713.1
2019-Aug-17 01:30N 43°38' E 008°12'713.2
2019-Aug-17 01:00N 43°37' E 008°21'713.1
2019-Aug-17 00:30N 43°37' E 008°31'713.0
2019-Aug-17 00:00N 43°37' E 008°39'612.9
2019-Aug-16 23:30N 43°36' E 008°48'612.7
2019-Aug-16 23:00N 43°36' E 008°57'612.6
2019-Aug-16 22:30N 43°36' E 009°06'612.6
2019-Aug-16 22:01N 43°35' E 009°15'612.8
2019-Aug-16 21:30N 43°35' E 009°23'612.7
2019-Aug-16 21:00N 43°35' E 009°32'612.5
2019-Aug-16 20:30N 43°34' E 009°41'612.4
2019-Aug-16 20:00N 43°33' E 009°49'612.5
2019-Aug-16 19:30N 43°31' E 009°57'612.4
2019-Aug-16 19:00N 43°30' E 010°06'612.3
2019-Aug-16 18:30N 43°32' E 010°14'3 6.2
2019-Aug-16 18:00N 43°33' E 010°18'0 0.2
2019-Aug-16 17:29N 43°33' E 010°18'0 0.0
2019-Aug-16 16:59N 43°33' E 010°18'0 0.0
2019-Aug-16 16:29N 43°33' E 010°18'0 0.0
2019-Aug-16 15:59N 43°33' E 010°18'0 0.0
2019-Aug-16 15:29N 43°33' E 010°18'0 0.0
2019-Aug-16 14:59N 43°33' E 010°18'0 0.0
2019-Aug-16 14:29N 43°33' E 010°18'0 0.0
2019-Aug-16 13:59N 43°33' E 010°18'0 0.0
2019-Aug-16 13:29N 43°33' E 010°18'0 0.0
2019-Aug-16 12:59N 43°33' E 010°18'0 0.0
2019-Aug-16 12:29N 43°33' E 010°18'0 0.0
2019-Aug-16 11:59N 43°33' E 010°18'0 0.0
2019-Aug-16 11:29N 43°33' E 010°18'0 0.0
2019-Aug-16 10:59N 43°33' E 010°18'0 0.0
2019-Aug-16 10:29N 43°33' E 010°18'0 0.0
2019-Aug-16 09:59N 43°33' E 010°18'0 0.0
2019-Aug-16 09:29N 43°33' E 010°18'0 0.0
2019-Aug-16 08:59N 43°33' E 010°18'0 0.0
2019-Aug-16 08:29N 43°33' E 010°18'0 0.0
2019-Aug-16 07:59N 43°33' E 010°18'0 0.0
2019-Aug-16 07:29N 43°33' E 010°18'0 0.0
2019-Aug-16 06:59N 43°33' E 010°18'0 0.0
2019-Aug-16 06:29N 43°33' E 010°18'0 0.0
2019-Aug-16 05:59N 43°33' E 010°18'0 0.6
2019-Aug-16 05:30N 43°33' E 010°18'2 4.3
2019-Aug-16 05:00N 43°31' E 010°16'4 8.4
2019-Aug-16 04:31N 43°28' E 010°13'714.4
2019-Aug-16 04:00N 43°21' E 010°11'714.5
2019-Aug-16 03:31N 43°14' E 010°09'713.8
2019-Aug-16 03:00N 43°07' E 010°07'713.7
2019-Aug-16 02:30N 43°00' E 010°05'713.5
2019-Aug-16 02:00N 42°54' E 010°03'713.2
2019-Aug-16 01:30N 42°47' E 010°01'813.5
2019-Aug-16 00:55N 42°41' E 010°07'613.9
2019-Aug-16 00:29N 42°36' E 010°12'713.8
2019-Aug-15 23:59N 42°31' E 010°18'1313.5
2019-Aug-15 23:03N 42°21' E 010°30'213.5
2019-Aug-15 22:55N 42°20' E 010°31'613.5
2019-Aug-15 22:28N 42°15' E 010°37'1713.9
2019-Aug-15 21:17N 42°03' E 010°51'1414.6
2019-Aug-15 20:21N 41°52' E 011°03'512.1
2019-Aug-15 19:56N 41°54' E 011°10'814.5
2019-Aug-15 19:21N 41°60' E 011°17'612.5
2019-Aug-15 18:50N 42°03' E 011°25'610.2
2019-Aug-15 18:16N 42°04' E 011°32'11 2.2
2019-Aug-15 13:14N 42°05' E 011°47'0 0.0
2019-Aug-15 12:56N 42°05' E 011°47'0 0.0
2019-Aug-15 12:26N 42°05' E 011°47'0 0.0
2019-Aug-15 11:59N 42°05' E 011°47'0 0.0
2019-Aug-15 11:29N 42°05' E 011°47'0 0.0
2019-Aug-15 10:59N 42°05' E 011°47'119 7.8
2019-Aug-14 19:48N 40°39' E 013°36'414.6
2019-Aug-14 19:30N 40°38' E 013°41'914.5
2019-Aug-14 18:54N 40°37' E 013°53'614.7
2019-Aug-14 18:29N 40°38' E 014°01'715.2
2019-Aug-14 18:00N 40°42' E 014°09'815.1
2019-Aug-14 17:30N 40°47' E 014°17'4 7.3
2019-Aug-14 17:00N 40°50' E 014°16'0 0.0
2019-Aug-14 16:25N 40°50' E 014°16'0 0.0
2019-Aug-14 15:58N 40°50' E 014°16'0 0.0
2019-Aug-14 15:28N 40°50' E 014°16'0 0.0
2019-Aug-14 14:58N 40°50' E 014°16'0 0.0
2019-Aug-14 14:28N 40°50' E 014°16'0 0.0
2019-Aug-14 13:58N 40°50' E 014°16'0 0.0
2019-Aug-14 13:28N 40°50' E 014°16'0 0.0
2019-Aug-14 12:58N 40°50' E 014°16'0 0.0
2019-Aug-14 12:28N 40°50' E 014°16'0 0.0
2019-Aug-14 11:58N 40°50' E 014°16'0 0.0
2019-Aug-14 11:25N 40°50' E 014°16'0 0.0
2019-Aug-14 10:58N 40°50' E 014°16'0 0.0
2019-Aug-14 10:25N 40°50' E 014°16'0 0.0
2019-Aug-14 09:58N 40°50' E 014°16'0 0.0
2019-Aug-14 09:28N 40°50' E 014°16'0 0.0
2019-Aug-14 08:58N 40°50' E 014°16'0 0.0
2019-Aug-14 08:28N 40°50' E 014°16'0 0.0
2019-Aug-14 07:58N 40°50' E 014°16'0 0.0
2019-Aug-14 07:25N 40°50' E 014°16'0 0.0
2019-Aug-14 06:58N 40°50' E 014°16'0 0.5
2019-Aug-14 06:30N 40°50' E 014°16'2 3.0
2019-Aug-14 06:01N 40°49' E 014°17'611.7
2019-Aug-14 05:30N 40°44' E 014°13'815.4
2019-Aug-14 05:00N 40°40' E 014°05'713.6
2019-Aug-14 04:31N 40°37' E 013°57'714.4
2019-Aug-14 04:01N 40°35' E 013°47'714.4
2019-Aug-14 03:31N 40°33' E 013°38'714.2
2019-Aug-14 03:01N 40°31' E 013°29'714.3
2019-Aug-14 02:30N 40°33' E 013°20'917.1
2019-Aug-14 01:58N 40°35' E 013°08'817.5
2019-Aug-14 01:30N 40°38' E 012°58'917.3
2019-Aug-14 01:01N 40°40' E 012°47'917.2
2019-Aug-14 00:31N 40°42' E 012°36'917.3
2019-Aug-14 00:01N 40°44' E 012°25'1017.3
2019-Aug-13 23:25N 40°47' E 012°12'717.4
2019-Aug-13 23:00N 40°49' E 012°03'2717.5
2019-Aug-13 21:28N 40°56' E 011°29'817.7
2019-Aug-13 21:00N 40°58' E 011°18'9517.5
2019-Aug-13 15:34N 41°18' E 009°15'317.4
2019-Aug-13 15:22N 41°17' E 009°10'717.3
2019-Aug-13 14:58N 41°17' E 009°01'817.2
2019-Aug-13 14:31N 41°17' E 008°50'816.8
2019-Aug-13 14:00N 41°17' E 008°39'816.6
2019-Aug-13 13:30N 41°16' E 008°28'816.5
2019-Aug-13 13:00N 41°16' E 008°17'1016.5
2019-Aug-13 12:22N 41°16' E 008°03'616.5
2019-Aug-13 12:00N 41°16' E 007°55'816.4
2019-Aug-13 11:31N 41°16' E 007°44'4016.2
2019-Aug-13 09:02N 41°16' E 006°51'116.0
2019-Aug-13 08:59N 41°16' E 006°50'20613.0
2019-Aug-12 17:08N 41°16' E 002°16'214.9
2019-Aug-12 17:00N 41°16' E 002°14'4 9.1
2019-Aug-12 16:30N 41°20' E 002°10'2 3.3
2019-Aug-12 15:59N 41°22' E 002°11'0 0.0
2019-Aug-12 15:29N 41°22' E 002°11'0 0.0
2019-Aug-12 14:59N 41°22' E 002°11'0 0.0
2019-Aug-12 14:29N 41°22' E 002°11'0 0.0
2019-Aug-12 13:59N 41°22' E 002°11'0 0.0
2019-Aug-12 13:29N 41°22' E 002°11'0 0.0
2019-Aug-12 12:59N 41°22' E 002°11'0 0.0
2019-Aug-12 12:29N 41°22' E 002°11'0 0.0
2019-Aug-12 11:59N 41°22' E 002°11'24 2.6
2019-Aug-12 02:40N 41°20' E 002°43'212.4
2019-Aug-12 02:30N 41°21' E 002°45'612.8
2019-Aug-12 02:01N 41°24' E 002°52'6911.9
2019-Aug-11 20:12N 42°23' E 003°40'516.1
2019-Aug-11 19:55N 42°27' E 003°41'4115.7
2019-Aug-11 17:17N 43°08' E 003°51'415.7
2019-Aug-11 17:01N 43°12' E 003°49'815.5
2019-Aug-11 16:30N 43°20' E 003°47'5 7.3
2019-Aug-11 15:50N 43°24' E 003°43'0 0.1
2019-Aug-11 14:02N 43°24' E 003°43'0 0.0
2019-Aug-11 10:44N 43°24' E 003°43'0 0.0
2019-Aug-11 10:29N 43°24' E 003°43'55 5.6
2019-Aug-11 00:44N 43°02' E 004°52'312.5
2019-Aug-11 00:30N 43°01' E 004°55'1512.6
2019-Aug-10 23:19N 42°57' E 005°15'3514.7
2019-Aug-10 20:55N 42°53' E 006°03'715.3
2019-Aug-10 20:27N 42°53' E 006°13'815.4
2019-Aug-10 19:57N 42°54' E 006°23'715.1
2019-Aug-10 19:30N 42°53' E 006°32'815.2
2019-Aug-10 19:00N 42°53' E 006°42'714.5
2019-Aug-10 18:30N 42°58' E 006°50'814.9
2019-Aug-10 17:59N 43°04' E 006°56'714.9
2019-Aug-10 17:30N 43°10' E 007°02'715.0
2019-Aug-10 17:00N 43°16' E 007°09'714.9
2019-Aug-10 16:30N 43°23' E 007°12'815.4
2019-Aug-10 16:00N 43°30' E 007°14'714.3
2019-Aug-10 15:30N 43°37' E 007°17'4 8.9
2019-Aug-10 15:00N 43°41' E 007°19'0 0.3
2019-Aug-10 14:30N 43°41' E 007°19'0 0.0
2019-Aug-10 13:51N 43°41' E 007°19'0 0.0
2019-Aug-10 13:23N 43°41' E 007°19'0 0.0
2019-Aug-10 13:00N 43°41' E 007°19'0 0.0
2019-Aug-10 12:30N 43°41' E 007°19'0 0.0
2019-Aug-10 11:57N 43°41' E 007°19'0 0.0
2019-Aug-10 11:30N 43°41' E 007°19'0 0.0
2019-Aug-10 10:54N 43°41' E 007°19'  
Track history (hours):
 
Tides and Currents Weather Stations Pressure Air Temp Water Temp Dewpoint Dewpoint Depression Visibility Wind Speed Wind Dir Waves Ship Positions

Sovereign

Last reported at 2019-Aug-20 10:31 UTC. Time now 2019-Aug-20 10:36 UTC.
Position N 41°17' E 008°23'.

Length 269 m; draft 7.8 m.

Type: Passenger vessel. MMSI: 249539000.

Date/timePositionNaut miles runAvg speedWind from/ knotsBaromVisibWave heightAir tempDewpointWater temp
2019-Aug-20 10:31N 41°17' E 008°23'915.5
2019-Aug-20 09:54N 41°17' E 008°11'1015.4
2019-Aug-20 09:15N 41°16' E 007°57'815.3
2019-Aug-20 08:45N 41°16' E 007°47'515.0
2019-Aug-20 08:26N 41°16' E 007°41'715.1
2019-Aug-20 07:59N 41°16' E 007°31'715.3
2019-Aug-20 07:31N 41°16' E 007°22'815.3
2019-Aug-20 07:00N 41°16' E 007°12'815.1
2019-Aug-20 06:30N 41°16' E 007°02'715.0
2019-Aug-20 06:00N 41°16' E 006°52'815.1
2019-Aug-20 05:30N 41°16' E 006°42'915.5
2019-Aug-20 04:54N 41°16' E 006°29'615.4
2019-Aug-20 04:31N 41°16' E 006°21'815.3
2019-Aug-20 03:58N 41°16' E 006°10'715.2
2019-Aug-20 03:31N 41°16' E 006°01'2214.7
2019-Aug-20 01:59N 41°16' E 005°31'816.9
2019-Aug-20 01:30N 41°16' E 005°20'1016.8
2019-Aug-20 00:54N 41°16' E 005°07'717.0
2019-Aug-20 00:30N 41°16' E 004°58'916.8
2019-Aug-20 00:00N 41°15' E 004°47'1816.4
2019-Aug-19 22:55N 41°16' E 004°23'1416.5
2019-Aug-19 22:05N 41°16' E 004°05'216.7
2019-Aug-19 21:58N 41°16' E 004°02'1916.6
2019-Aug-19 20:51N 41°16' E 003°37'1416.2
2019-Aug-19 20:00N 41°16' E 003°19'4816.0
2019-Aug-19 17:02N 41°16' E 002°16'116.5
2019-Aug-19 16:59N 41°16' E 002°15'510.3
2019-Aug-19 16:31N 41°19' E 002°10'2 4.3
2019-Aug-19 16:00N 41°22' E 002°11'0 0.0
2019-Aug-19 15:30N 41°22' E 002°11'0 0.0
2019-Aug-19 15:00N 41°22' E 002°11'0 0.0
2019-Aug-19 14:30N 41°22' E 002°11'0 0.0
2019-Aug-19 14:00N 41°22' E 002°11'0 0.0
2019-Aug-19 13:30N 41°22' E 002°11'0 0.0
2019-Aug-19 13:00N 41°22' E 002°11'0 0.0
2019-Aug-19 12:30N 41°22' E 002°11'0 0.0
2019-Aug-19 12:00N 41°22' E 002°11'0 0.0
2019-Aug-19 11:30N 41°22' E 002°11'0 0.0
2019-Aug-19 11:00N 41°22' E 002°11'0 0.0
2019-Aug-19 10:30N 41°22' E 002°11'0 0.0
2019-Aug-19 10:00N 41°22' E 002°11'0 0.0
2019-Aug-19 09:30N 41°22' E 002°11'0 0.0
2019-Aug-19 09:00N 41°22' E 002°11'0 0.0
2019-Aug-19 08:30N 41°22' E 002°11'0 0.0
2019-Aug-19 08:00N 41°22' E 002°11'0 0.0
2019-Aug-19 07:30N 41°22' E 002°11'0 0.0
2019-Aug-19 07:00N 41°22' E 002°11'0 0.0
2019-Aug-19 06:30N 41°22' E 002°11'0 0.0
2019-Aug-19 06:00N 41°22' E 002°11'1 2.0
2019-Aug-19 05:30N 41°21' E 002°10'2 4.9
2019-Aug-19 05:00N 41°18' E 002°11'5 9.1
2019-Aug-19 04:30N 41°16' E 002°16'612.7
2019-Aug-19 04:00N 41°16' E 002°25'612.3
2019-Aug-19 03:30N 41°16' E 002°33'712.4
2019-Aug-19 02:54N 41°19' E 002°42'512.2
2019-Aug-19 02:30N 41°22' E 002°47'1012.3
2019-Aug-19 01:44N 41°27' E 002°58'912.3
2019-Aug-19 01:01N 41°32' E 003°08'011.9
2019-Aug-19 01:00N 41°32' E 003°08'6432.1
2019-Aug-19 01:00N 41°30' E 003°00'1323.4 050 / 121016.0 5.4 24.0 26.5
2019-Aug-19 00:25N 41°37' E 003°16'512.4
2019-Aug-18 23:59N 41°40' E 003°21'1012.1
2019-Aug-18 23:08N 41°46' E 003°32'313.0
2019-Aug-18 22:52N 41°50' E 003°33'712.8
2019-Aug-18 22:19N 41°57' E 003°34'515.0
2019-Aug-18 21:57N 42°02' E 003°36'7115.1
2019-Aug-18 17:14N 43°13' E 003°49'314.7
2019-Aug-18 17:00N 43°16' E 003°48'714.2
2019-Aug-18 16:30N 43°23' E 003°46'3 5.3
2019-Aug-18 16:00N 43°24' E 003°43'0 0.1
2019-Aug-18 15:26N 43°24' E 003°43'0 0.0
2019-Aug-18 14:56N 43°24' E 003°43'0 0.0
2019-Aug-18 14:26N 43°24' E 003°43'0 0.0
2019-Aug-18 13:26N 43°24' E 003°43'0 0.0
2019-Aug-18 12:26N 43°24' E 003°43'0 0.0
2019-Aug-18 11:26N 43°24' E 003°43'0 0.0
2019-Aug-18 10:56N 43°24' E 003°43'0 0.0
2019-Aug-18 09:44N 43°24' E 003°43'0 0.0
2019-Aug-18 08:29N 43°24' E 003°43'0 0.0
2019-Aug-18 07:53N 43°24' E 003°43'0 0.0
2019-Aug-18 06:56N 43°24' E 003°43'0 0.0
2019-Aug-18 06:08N 43°24' E 003°43'0 0.0
2019-Aug-18 05:49N 43°24' E 003°43'0 1.2
2019-Aug-18 05:31N 43°24' E 003°43'3 6.3
2019-Aug-18 05:00N 43°22' E 003°47'5 9.7
2019-Aug-18 04:29N 43°18' E 003°51'611.5
2019-Aug-18 04:00N 43°15' E 003°57'612.2
2019-Aug-18 03:29N 43°12' E 004°05'5812.6
2019-Aug-17 22:55N 42°56' E 005°21'1012.9
2019-Aug-17 22:10N 42°55' E 005°34'215.7
2019-Aug-17 22:00N 42°54' E 005°37'1515.7
2019-Aug-17 21:04N 42°54' E 005°58'115.6
2019-Aug-17 21:00N 42°54' E 005°59'815.8
2019-Aug-17 20:29N 42°53' E 006°10'815.9
2019-Aug-17 20:00N 42°53' E 006°20'815.7
2019-Aug-17 19:30N 42°53' E 006°31'815.6
2019-Aug-17 19:00N 42°53' E 006°42'1415.0
2019-Aug-17 18:06N 43°02' E 006°55'915.5
2019-Aug-17 17:30N 43°10' E 007°03'815.7
2019-Aug-17 17:00N 43°16' E 007°09'815.4
2019-Aug-17 16:30N 43°23' E 007°12'815.5
2019-Aug-17 16:00N 43°31' E 007°14'714.8
2019-Aug-17 15:30N 43°38' E 007°18'4 7.3
2019-Aug-17 15:00N 43°41' E 007°19'0 0.0
2019-Aug-17 14:30N 43°41' E 007°19'0 0.0
2019-Aug-17 13:51N 43°41' E 007°19'0 0.0
2019-Aug-17 13:27N 43°41' E 007°19'0 0.0
2019-Aug-17 13:00N 43°41' E 007°19'0 0.0
2019-Aug-17 12:30N 43°41' E 007°19'0 0.0
2019-Aug-17 11:57N 43°41' E 007°19'0 0.0
2019-Aug-17 11:30N 43°41' E 007°19'0 0.0
2019-Aug-17 10:57N 43°41' E 007°19'0 0.0
2019-Aug-17 10:24N 43°41' E 007°19'0 0.0
2019-Aug-17 10:00N 43°41' E 007°19'0 0.0
2019-Aug-17 09:24N 43°41' E 007°19'0 0.0
2019-Aug-17 08:57N 43°41' E 007°19'0 0.0
2019-Aug-17 08:30N 43°41' E 007°19'0 0.0
2019-Aug-17 08:00N 43°41' E 007°19'0 0.0
2019-Aug-17 07:30N 43°41' E 007°19'0 0.0
2019-Aug-17 07:00N 43°41' E 007°19'0 0.0
2019-Aug-17 06:27N 43°41' E 007°19'0 0.0
2019-Aug-17 05:57N 43°41' E 007°19'0 0.1
2019-Aug-17 05:30N 43°41' E 007°19'0 0.1
2019-Aug-17 05:00N 43°41' E 007°19'2 4.3
2019-Aug-17 04:30N 43°40' E 007°21'612.0
2019-Aug-17 04:00N 43°39' E 007°29'612.2
2019-Aug-17 03:30N 43°39' E 007°37'612.8
2019-Aug-17 03:00N 43°40' E 007°46'612.7
2019-Aug-17 02:31N 43°40' E 007°55'612.9
2019-Aug-17 02:00N 43°39' E 008°03'713.1
2019-Aug-17 01:30N 43°38' E 008°12'713.2
2019-Aug-17 01:00N 43°37' E 008°21'713.1
2019-Aug-17 00:30N 43°37' E 008°31'713.0
2019-Aug-17 00:00N 43°37' E 008°39'612.9
2019-Aug-16 23:30N 43°36' E 008°48'612.7
2019-Aug-16 23:00N 43°36' E 008°57'612.6
2019-Aug-16 22:30N 43°36' E 009°06'612.6
2019-Aug-16 22:01N 43°35' E 009°15'612.8
2019-Aug-16 21:30N 43°35' E 009°23'612.7
2019-Aug-16 21:00N 43°35' E 009°32'612.5
2019-Aug-16 20:30N 43°34' E 009°41'612.4
2019-Aug-16 20:00N 43°33' E 009°49'612.5
2019-Aug-16 19:30N 43°31' E 009°57'612.4
2019-Aug-16 19:00N 43°30' E 010°06'612.3
2019-Aug-16 18:30N 43°32' E 010°14'3 6.2
2019-Aug-16 18:00N 43°33' E 010°18'0 0.2
2019-Aug-16 17:29N 43°33' E 010°18'0 0.0
2019-Aug-16 16:59N 43°33' E 010°18'0 0.0
2019-Aug-16 16:29N 43°33' E 010°18'0 0.0
2019-Aug-16 15:59N 43°33' E 010°18'0 0.0
2019-Aug-16 15:29N 43°33' E 010°18'0 0.0
2019-Aug-16 14:59N 43°33' E 010°18'0 0.0
2019-Aug-16 14:29N 43°33' E 010°18'0 0.0
2019-Aug-16 13:59N 43°33' E 010°18'0 0.0
2019-Aug-16 13:29N 43°33' E 010°18'0 0.0
2019-Aug-16 12:59N 43°33' E 010°18'0 0.0
2019-Aug-16 12:29N 43°33' E 010°18'0 0.0
2019-Aug-16 11:59N 43°33' E 010°18'0 0.0
2019-Aug-16 11:29N 43°33' E 010°18'0 0.0
2019-Aug-16 10:59N 43°33' E 010°18'0 0.0
2019-Aug-16 10:29N 43°33' E 010°18'0 0.0
2019-Aug-16 09:59N 43°33' E 010°18'0 0.0
2019-Aug-16 09:29N 43°33' E 010°18'0 0.0
2019-Aug-16 08:59N 43°33' E 010°18'0 0.0
2019-Aug-16 08:29N 43°33' E 010°18'0 0.0
2019-Aug-16 07:59N 43°33' E 010°18'0 0.0
2019-Aug-16 07:29N 43°33' E 010°18'0 0.0
2019-Aug-16 06:59N 43°33' E 010°18'0 0.0
2019-Aug-16 06:29N 43°33' E 010°18'0 0.0
2019-Aug-16 05:59N 43°33' E 010°18'0 0.6
2019-Aug-16 05:30N 43°33' E 010°18'2 4.3
2019-Aug-16 05:00N 43°31' E 010°16'4 8.4
2019-Aug-16 04:31N 43°28' E 010°13'714.4
2019-Aug-16 04:00N 43°21' E 010°11'714.5
2019-Aug-16 03:31N 43°14' E 010°09'713.8
2019-Aug-16 03:00N 43°07' E 010°07'713.7
2019-Aug-16 02:30N 43°00' E 010°05'713.5
2019-Aug-16 02:00N 42°54' E 010°03'713.2
2019-Aug-16 01:30N 42°47' E 010°01'813.5
2019-Aug-16 00:55N 42°41' E 010°07'613.9
2019-Aug-16 00:29N 42°36' E 010°12'713.8
2019-Aug-15 23:59N 42°31' E 010°18'1313.5
2019-Aug-15 23:03N 42°21' E 010°30'213.5
2019-Aug-15 22:55N 42°20' E 010°31'613.5
2019-Aug-15 22:28N 42°15' E 010°37'1713.9
2019-Aug-15 21:17N 42°03' E 010°51'1414.6
2019-Aug-15 20:21N 41°52' E 011°03'512.1
2019-Aug-15 19:56N 41°54' E 011°10'814.5
2019-Aug-15 19:21N 41°60' E 011°17'612.5
2019-Aug-15 18:50N 42°03' E 011°25'610.2
2019-Aug-15 18:16N 42°04' E 011°32'11 2.2
2019-Aug-15 13:14N 42°05' E 011°47'0 0.0
2019-Aug-15 12:56N 42°05' E 011°47'0 0.0
2019-Aug-15 12:26N 42°05' E 011°47'0 0.0
2019-Aug-15 11:59N 42°05' E 011°47'0 0.0
2019-Aug-15 11:29N 42°05' E 011°47'0 0.0
2019-Aug-15 10:59N 42°05' E 011°47'119 7.8
2019-Aug-14 19:48N 40°39' E 013°36'414.6
2019-Aug-14 19:30N 40°38' E 013°41'914.5
2019-Aug-14 18:54N 40°37' E 013°53'614.7
2019-Aug-14 18:29N 40°38' E 014°01'715.2
2019-Aug-14 18:00N 40°42' E 014°09'815.1
2019-Aug-14 17:30N 40°47' E 014°17'4 7.3
2019-Aug-14 17:00N 40°50' E 014°16'0 0.0
2019-Aug-14 16:25N 40°50' E 014°16'0 0.0
2019-Aug-14 15:58N 40°50' E 014°16'0 0.0
2019-Aug-14 15:28N 40°50' E 014°16'0 0.0
2019-Aug-14 14:58N 40°50' E 014°16'0 0.0
2019-Aug-14 14:28N 40°50' E 014°16'0 0.0
2019-Aug-14 13:58N 40°50' E 014°16'0 0.0
2019-Aug-14 13:28N 40°50' E 014°16'0 0.0
2019-Aug-14 12:58N 40°50' E 014°16'0 0.0
2019-Aug-14 12:28N 40°50' E 014°16'0 0.0
2019-Aug-14 11:58N 40°50' E 014°16'0 0.0
2019-Aug-14 11:25N 40°50' E 014°16'0 0.0
2019-Aug-14 10:58N 40°50' E 014°16'0 0.0
2019-Aug-14 10:25N 40°50' E 014°16'0 0.0
2019-Aug-14 09:58N 40°50' E 014°16'0 0.0
2019-Aug-14 09:28N 40°50' E 014°16'0 0.0
2019-Aug-14 08:58N 40°50' E 014°16'0 0.0
2019-Aug-14 08:28N 40°50' E 014°16'0 0.0
2019-Aug-14 07:58N 40°50' E 014°16'0 0.0
2019-Aug-14 07:25N 40°50' E 014°16'0 0.0
2019-Aug-14 06:58N 40°50' E 014°16'0 0.5
2019-Aug-14 06:30N 40°50' E 014°16'2 3.0
2019-Aug-14 06:01N 40°49' E 014°17'611.7
2019-Aug-14 05:30N 40°44' E 014°13'815.4
2019-Aug-14 05:00N 40°40' E 014°05'713.6
2019-Aug-14 04:31N 40°37' E 013°57'714.4
2019-Aug-14 04:01N 40°35' E 013°47'714.4
2019-Aug-14 03:31N 40°33' E 013°38'714.2
2019-Aug-14 03:01N 40°31' E 013°29'714.3
2019-Aug-14 02:30N 40°33' E 013°20'917.1
2019-Aug-14 01:58N 40°35' E 013°08'817.5
2019-Aug-14 01:30N 40°38' E 012°58'917.3
2019-Aug-14 01:01N 40°40' E 012°47'917.2
2019-Aug-14 00:31N 40°42' E 012°36'917.3
2019-Aug-14 00:01N 40°44' E 012°25'1017.3
2019-Aug-13 23:25N 40°47' E 012°12'717.4
2019-Aug-13 23:00N 40°49' E 012°03'2717.5
2019-Aug-13 21:28N 40°56' E 011°29'817.7
2019-Aug-13 21:00N 40°58' E 011°18'9517.5
2019-Aug-13 15:34N 41°18' E 009°15'317.4
2019-Aug-13 15:22N 41°17' E 009°10'717.3
2019-Aug-13 14:58N 41°17' E 009°01'817.2
2019-Aug-13 14:31N 41°17' E 008°50'816.8
2019-Aug-13 14:00N 41°17' E 008°39'816.6
2019-Aug-13 13:30N 41°16' E 008°28'816.5
2019-Aug-13 13:00N 41°16' E 008°17'1016.5
2019-Aug-13 12:22N 41°16' E 008°03'616.5
2019-Aug-13 12:00N 41°16' E 007°55'816.4
2019-Aug-13 11:31N 41°16' E 007°44'4016.2
2019-Aug-13 09:02N 41°16' E 006°51'116.0
2019-Aug-13 08:59N 41°16' E 006°50'20613.0
2019-Aug-12 17:08N 41°16' E 002°16'214.9
2019-Aug-12 17:00N 41°16' E 002°14'4 9.1
2019-Aug-12 16:30N 41°20' E 002°10'2 3.3
2019-Aug-12 15:59N 41°22' E 002°11'0 0.0
2019-Aug-12 15:29N 41°22' E 002°11'0 0.0
2019-Aug-12 14:59N 41°22' E 002°11'0 0.0
2019-Aug-12 14:29N 41°22' E 002°11'0 0.0
2019-Aug-12 13:59N 41°22' E 002°11'0 0.0
2019-Aug-12 13:29N 41°22' E 002°11'0 0.0
2019-Aug-12 12:59N 41°22' E 002°11'0 0.0
2019-Aug-12 12:29N 41°22' E 002°11'0 0.0
2019-Aug-12 11:59N 41°22' E 002°11'24 2.6
2019-Aug-12 02:40N 41°20' E 002°43'212.4
2019-Aug-12 02:30N 41°21' E 002°45'612.8
2019-Aug-12 02:01N 41°24' E 002°52'6911.9
2019-Aug-11 20:12N 42°23' E 003°40'516.1
2019-Aug-11 19:55N 42°27' E 003°41'4115.7
2019-Aug-11 17:17N 43°08' E 003°51'415.7
2019-Aug-11 17:01N 43°12' E 003°49'815.5
2019-Aug-11 16:30N 43°20' E 003°47'5 7.3
2019-Aug-11 15:50N 43°24' E 003°43'0 0.1
2019-Aug-11 14:02N 43°24' E 003°43'0 0.0
2019-Aug-11 10:44N 43°24' E 003°43'0 0.0
2019-Aug-11 10:29N 43°24' E 003°43'55 5.6
2019-Aug-11 00:44N 43°02' E 004°52'312.5
2019-Aug-11 00:30N 43°01' E 004°55'1512.6
2019-Aug-10 23:19N 42°57' E 005°15'3514.7
2019-Aug-10 20:55N 42°53' E 006°03'715.3
2019-Aug-10 20:27N 42°53' E 006°13'815.4
2019-Aug-10 19:57N 42°54' E 006°23'715.1
2019-Aug-10 19:30N 42°53' E 006°32'815.2
2019-Aug-10 19:00N 42°53' E 006°42'714.5
2019-Aug-10 18:30N 42°58' E 006°50'814.9
2019-Aug-10 17:59N 43°04' E 006°56'714.9
2019-Aug-10 17:30N 43°10' E 007°02'715.0
2019-Aug-10 17:00N 43°16' E 007°09'714.9
2019-Aug-10 16:30N 43°23' E 007°12'815.4
2019-Aug-10 16:00N 43°30' E 007°14'714.3
2019-Aug-10 15:30N 43°37' E 007°17'4 8.9
2019-Aug-10 15:00N 43°41' E 007°19'0 0.3
2019-Aug-10 14:30N 43°41' E 007°19'0 0.0
2019-Aug-10 13:51N 43°41' E 007°19'0 0.0
2019-Aug-10 13:23N 43°41' E 007°19'0 0.0
2019-Aug-10 13:00N 43°41' E 007°19'0 0.0
2019-Aug-10 12:30N 43°41' E 007°19'0 0.0
2019-Aug-10 11:57N 43°41' E 007°19'0 0.0
2019-Aug-10 11:30N 43°41' E 007°19'0 0.0
2019-Aug-10 10:54N 43°41' E 007°19'  

Dump ship's entire track history